Time;durP1;ratioP1;P1;durP2;ratioP2;P2;SDS_P1;SDS_P2;PMS_P1;PMS_P2;Temp;Humidity;BMP_temperature;BMP_pressure;BME280_temperature;BME280_humidity;BME280_pressure;Samples;Min_cycle;Max_cycle;Signal;HPM_P1;HPM_P2
2023/03/06 00:02:07;;;;;;;4.57;2.13;;;;;;;3.19;80.61;99901.53;4952547;28;20206;-83
2023/03/06 00:04:33;;;;;;;3.47;1.80;;;;;;;3.17;80.71;99893.69;4955590;28;20225;-83
2023/03/06 00:07:00;;;;;;;3.17;2.10;;;;;;;3.17;81.00;99888.44;4952792;28;20228;-82
2023/03/06 00:09:26;;;;;;;5.57;2.30;;;;;;;3.18;80.21;99890.13;4955411;28;20206;-83
2023/03/06 00:11:53;;;;;;;3.80;2.07;;;;;;;3.17;80.21;99885.81;4953735;28;20221;-83
2023/03/06 00:14:19;;;;;;;2.70;2.00;;;;;;;3.19;80.47;99891.84;4949613;28;20228;-80
2023/03/06 00:16:46;;;;;;;4.10;2.30;;;;;;;3.18;80.49;99882.25;4952054;28;20201;-83
2023/03/06 00:19:13;;;;;;;3.60;1.97;;;;;;;3.17;80.07;99880.53;4954390;28;20218;-81
2023/03/06 00:21:40;;;;;;;6.27;2.50;;;;;;;3.13;79.76;99877.19;4955029;28;20229;-83
2023/03/06 00:24:07;;;;;;;3.20;2.30;;;;;;;3.12;80.00;99879.88;4951846;28;20228;-82
2023/03/06 00:26:34;;;;;;;3.13;1.80;;;;;;;3.12;79.86;99867.59;4955364;28;20229;-80
2023/03/06 00:29:01;;;;;;;4.33;2.63;;;;;;;3.12;79.43;99872.84;4952053;28;20208;-84
2023/03/06 00:31:27;;;;;;;3.50;2.03;;;;;;;3.12;79.44;99866.72;4952056;28;20220;-82
2023/03/06 00:33:54;;;;;;;5.27;2.43;;;;;;;3.12;80.10;99864.09;4950818;28;20220;-83
2023/03/06 00:36:21;;;;;;;3.43;2.33;;;;;;;3.12;79.49;99864.94;4947546;28;20208;-84
2023/03/06 00:38:48;;;;;;;2.57;2.00;;;;;;;3.10;79.28;99855.41;4950852;28;20209;-83
2023/03/06 00:41:14;;;;;;;5.43;2.80;;;;;;;3.13;80.02;99856.13;4948262;28;20205;-83
2023/03/06 00:43:41;;;;;;;4.00;2.47;;;;;;;3.12;79.42;99849.16;4953268;28;20296;-83
2023/03/06 00:46:08;;;;;;;4.13;2.27;;;;;;;3.08;79.69;99854.63;4949868;28;20225;-82
2023/03/06 00:48:34;;;;;;;6.97;3.23;;;;;;;3.05;80.39;99852.13;4952328;28;20209;-82
2023/03/06 00:51:01;;;;;;;3.63;2.70;;;;;;;3.02;80.53;99850.53;4951793;28;20578;-84
2023/03/06 00:53:29;;;;;;;5.90;3.43;;;;;;;3.02;79.90;99852.28;4950425;28;20224;-83
2023/03/06 00:55:55;;;;;;;4.00;2.77;;;;;;;3.01;79.85;99846.19;4952007;28;20233;-84
2023/03/06 00:58:22;;;;;;;6.10;2.87;;;;;;;2.99;80.41;99842.75;4951495;28;20208;-83
2023/03/06 01:00:48;;;;;;;4.33;2.70;;;;;;;2.98;80.57;99830.53;4953898;28;20219;-82
2023/03/06 01:03:15;;;;;;;10.10;2.90;;;;;;;2.99;80.19;99837.50;4954763;28;20201;-82
2023/03/06 01:05:41;;;;;;;3.77;2.97;;;;;;;2.98;80.08;99830.53;4950851;28;20237;-84
2023/03/06 01:08:08;;;;;;;5.80;3.13;;;;;;;2.95;80.61;99835.06;4952941;28;20234;-83
2023/03/06 01:10:39;;;;;;;4.70;3.70;;;;;;;2.95;80.50;99825.41;4948320;28;20596;-82
2023/03/06 01:13:06;;;;;;;5.13;3.17;;;;;;;2.95;80.80;99828.03;4948696;28;20208;-85
2023/03/06 01:15:32;;;;;;;6.57;3.73;;;;;;;2.94;80.55;99830.72;4950477;28;20221;-84
2023/03/06 01:17:59;;;;;;;7.13;4.00;;;;;;;2.91;81.45;99833.50;4950426;28;20220;-81
2023/03/06 01:20:26;;;;;;;6.83;3.50;;;;;;;2.91;81.59;99826.47;4946060;28;20696;-82
2023/03/06 01:22:53;;;;;;;5.47;3.77;;;;;;;2.92;81.50;99829.94;4952349;28;20216;-83
2023/03/06 01:25:20;;;;;;;7.90;4.10;;;;;;;2.94;81.04;99836.00;4951600;28;20687;-83
2023/03/06 01:27:47;;;;;;;9.30;3.90;;;;;;;2.94;80.83;99826.31;4958793;28;20228;-83
2023/03/06 01:30:14;;;;;;;7.33;3.63;;;;;;;2.95;81.42;99835.94;4953504;28;20205;-81
2023/03/06 01:32:41;;;;;;;6.17;4.13;;;;;;;2.96;80.91;99836.78;4955960;28;20215;-83
2023/03/06 01:35:08;;;;;;;9.07;4.13;;;;;;;2.95;81.55;99827.19;4954834;28;20228;-84
2023/03/06 01:37:35;;;;;;;5.63;4.27;;;;;;;2.95;81.54;99830.66;4950315;28;20197;-83
2023/03/06 01:40:01;;;;;;;5.73;4.33;;;;;;;2.94;81.94;99830.72;4957689;28;20210;-83
2023/03/06 01:42:28;;;;;;;5.37;3.97;;;;;;;2.94;81.52;99828.09;4949505;28;20227;-82
2023/03/06 01:45:00;;;;;;;9.70;5.43;;;;;;;2.93;81.47;99836.91;4954195;28;20252;-81
2023/03/06 01:47:27;;;;;;;8.03;4.27;;;;;;;2.93;81.41;99826.41;4956336;28;20232;-82
2023/03/06 01:49:54;;;;;;;7.93;5.03;;;;;;;2.90;81.41;99822.13;4948686;28;20201;-84
2023/03/06 01:52:25;;;;;;;7.80;4.70;;;;;;;2.90;81.67;99814.22;4956659;28;20208;-84
2023/03/06 01:54:54;;;;;;;9.83;4.83;;;;;;;2.91;82.17;99818.56;4944821;28;20240;-84
2023/03/06 01:57:23;;;;;;;7.80;5.47;;;;;;;2.88;82.19;99809.97;4950733;28;20218;-83
2023/03/06 01:59:55;;;;;;;12.30;5.60;;;;;;;2.87;81.51;99813.50;4951829;28;20212;-84
2023/03/06 02:02:23;;;;;;;8.60;5.57;;;;;;;2.87;81.86;99805.63;4948906;28;20205;-82
2023/03/06 02:04:50;;;;;;;11.80;6.60;;;;;;;2.87;82.44;99801.22;4949300;28;20229;-82
2023/03/06 02:07:19;;;;;;;9.47;6.70;;;;;;;2.85;82.64;99799.59;4955381;28;20781;-84
2023/03/06 02:09:46;;;;;;;11.57;6.60;;;;;;;2.83;82.30;99791.78;4951674;28;20240;-84
2023/03/06 02:12:16;;;;;;;10.30;6.70;;;;;;;2.82;82.85;99795.34;4951432;28;20201;-83
2023/03/06 02:14:43;;;;;;;9.47;6.87;;;;;;;2.81;82.71;99792.78;4947889;28;20783;-83
2023/03/06 02:17:12;;;;;;;10.27;6.87;;;;;;;2.78;82.40;99784.09;4951129;28;20207;-82
2023/03/06 02:19:52;;;;;;;11.03;7.37;;;;;;;2.78;82.33;99781.47;4954807;28;20217;-82
2023/03/06 02:22:19;;;;;;;10.27;6.80;;;;;;;2.77;82.96;99782.38;4953223;28;20213;-82
2023/03/06 02:24:49;;;;;;;10.77;6.87;;;;;;;2.75;82.44;99781.59;4950383;28;20225;-82
2023/03/06 02:27:18;;;;;;;10.13;6.23;;;;;;;2.76;82.46;99782.44;4952268;28;20228;-82
2023/03/06 02:29:45;;;;;;;10.23;6.73;;;;;;;2.73;83.22;99778.19;4950060;28;20212;-84
2023/03/06 02:32:12;;;;;;;13.10;6.80;;;;;;;2.73;82.99;99775.56;4957629;28;20203;-84
2023/03/06 02:34:50;;;;;;;9.70;5.97;;;;;;;2.71;83.04;99774.75;4953805;28;20232;-81
2023/03/06 02:37:17;;;;;;;11.17;6.77;;;;;;;2.69;83.25;99779.22;4948621;28;20197;-81
2023/03/06 02:39:48;;;;;;;9.37;6.40;;;;;;;2.67;83.22;99773.22;4955884;28;20209;-83
2023/03/06 02:42:20;;;;;;;11.03;6.60;;;;;;;2.65;83.21;99768.94;4951244;28;20576;-85
2023/03/06 02:44:48;;;;;;;10.03;6.43;;;;;;;2.63;83.12;99760.28;4951561;28;20232;-85
2023/03/06 02:47:14;;;;;;;9.90;7.00;;;;;;;2.61;83.30;99767.38;4953958;28;20580;-83
2023/03/06 02:49:41;;;;;;;12.63;6.47;;;;;;;2.59;82.91;99762.19;4950652;28;20333;-81
2023/03/06 02:52:08;;;;;;;10.97;6.80;;;;;;;2.59;82.79;99754.28;4953354;28;20205;-83
2023/03/06 02:54:34;;;;;;;13.27;6.73;;;;;;;2.58;83.57;99749.97;4950894;28;20834;-83
2023/03/06 02:57:01;;;;;;;9.80;6.37;;;;;;;2.58;83.69;99757.00;4950566;28;20255;-83
2023/03/06 02:59:28;;;;;;;14.37;7.17;;;;;;;2.57;83.32;99747.41;4953806;28;20200;-83
2023/03/06 03:01:55;;;;;;;11.13;6.67;;;;;;;2.55;82.74;99750.09;4946361;28;20213;-83
2023/03/06 03:04:21;;;;;;;9.47;6.20;;;;;;;2.54;83.43;99751.00;4947387;28;20232;-85
2023/03/06 03:06:48;;;;;;;13.23;6.40;;;;;;;2.53;83.09;99749.31;4947003;28;20209;-84
2023/03/06 03:09:14;;;;;;;10.13;7.03;;;;;;;2.52;83.65;99747.59;4950703;28;20229;-84
2023/03/06 03:11:41;;;;;;;11.47;6.03;;;;;;;2.52;82.83;99752.00;4952765;28;20209;-83
2023/03/06 03:14:07;;;;;;;10.13;6.90;;;;;;;2.50;83.23;99744.22;4948093;28;20201;-83
2023/03/06 03:16:35;;;;;;;11.63;6.73;;;;;;;2.49;83.68;99744.28;4950594;28;20205;-83
2023/03/06 03:19:01;;;;;;;11.27;6.93;;;;;;;2.48;82.97;99743.41;4948967;28;20197;-82
2023/03/06 03:21:28;;;;;;;10.60;6.43;;;;;;;2.45;83.12;99754.06;4950177;28;20201;-84
2023/03/06 03:23:54;;;;;;;14.17;7.00;;;;;;;2.45;83.46;99740.94;4951795;28;20217;-84
2023/03/06 03:26:22;;;;;;;9.97;6.30;;;;;;;2.43;83.12;99743.63;4952294;28;20207;-83
2023/03/06 03:28:48;;;;;;;8.63;5.87;;;;;;;2.43;83.68;99740.13;4957154;28;20233;-82
2023/03/06 03:31:15;;;;;;;10.20;6.97;;;;;;;2.41;83.72;99739.34;4951875;28;20197;-82
2023/03/06 03:33:42;;;;;;;10.40;6.17;;;;;;;2.39;83.25;99735.94;4953352;28;20216;-83
2023/03/06 03:36:09;;;;;;;8.47;6.23;;;;;;;2.39;83.28;99730.69;4954194;28;20224;-82
2023/03/06 03:38:37;;;;;;;9.43;6.50;;;;;;;2.38;83.80;99732.44;4952554;28;20580;-84
2023/03/06 03:41:04;;;;;;;9.73;6.63;;;;;;;2.37;83.48;99735.13;4952763;28;20212;-83
2023/03/06 03:43:31;;;;;;;10.17;6.67;;;;;;;2.36;83.60;99728.19;4945980;28;20206;-81
2023/03/06 03:45:57;;;;;;;10.63;6.37;;;;;;;2.35;83.79;99726.47;4947037;28;20630;-82
2023/03/06 03:48:24;;;;;;;9.93;6.23;;;;;;;2.34;84.05;99727.38;4946231;29;20237;-82
2023/03/06 03:50:51;;;;;;;12.60;7.37;;;;;;;2.33;83.69;99715.22;4948805;28;20209;-80
2023/03/06 03:53:18;;;;;;;11.03;6.97;;;;;;;2.33;84.56;99712.56;4956683;28;20204;-84
2023/03/06 03:55:46;;;;;;;10.40;7.17;;;;;;;2.34;84.55;99712.47;4951325;28;20255;-84
2023/03/06 03:58:13;;;;;;;10.47;7.43;;;;;;;2.35;83.88;99710.72;4949335;28;20664;-82
2023/03/06 04:00:39;;;;;;;8.23;6.57;;;;;;;2.32;83.90;99705.63;4950973;28;20688;-85
2023/03/06 04:03:05;;;;;;;11.57;7.33;;;;;;;2.31;84.16;99712.66;4957226;28;20683;-82
2023/03/06 04:05:32;;;;;;;9.57;7.47;;;;;;;2.30;84.12;99704.81;4951209;28;20225;-82
2023/03/06 04:08:01;;;;;;;11.63;6.97;;;;;;;2.30;84.56;99702.19;4950773;28;20734;-83
2023/03/06 04:10:28;;;;;;;12.37;7.67;;;;;;;2.30;84.66;99702.19;4957137;28;20557;-82
2023/03/06 04:12:54;;;;;;;11.13;7.50;;;;;;;2.29;84.31;99696.09;4954879;28;20623;-81
2023/03/06 04:15:21;;;;;;;10.77;8.03;;;;;;;2.29;84.82;99689.97;4954572;28;20724;-84
2023/03/06 04:17:47;;;;;;;11.87;7.70;;;;;;;2.30;84.25;99689.06;4954689;28;20231;-82
2023/03/06 04:20:14;;;;;;;13.60;8.23;;;;;;;2.29;84.38;99693.47;4952114;28;20232;-82
2023/03/06 04:22:40;;;;;;;11.53;8.13;;;;;;;2.28;84.64;99683.03;4949872;28;20944;-81
2023/03/06 04:25:09;;;;;;;12.20;8.63;;;;;;;2.27;84.79;99683.94;4946056;28;20722;-82
2023/03/06 04:27:36;;;;;;;13.97;8.47;;;;;;;2.27;84.70;99683.94;4952005;28;20212;-82
2023/03/06 04:30:02;;;;;;;13.23;9.27;;;;;;;2.27;84.72;99683.94;4948121;28;20209;-82
2023/03/06 04:32:29;;;;;;;11.93;8.73;;;;;;;2.27;85.10;99682.16;4952141;28;20213;-82
2023/03/06 04:34:55;;;;;;;16.40;10.63;;;;;;;2.26;84.94;99674.34;4949235;28;20233;-84
2023/03/06 04:37:23;;;;;;;17.30;11.40;;;;;;;2.25;85.48;99678.75;4952980;28;20209;-80
2023/03/06 04:39:50;;;;;;;17.60;10.63;;;;;;;2.25;85.33;99670.88;4954205;28;20204;-82
2023/03/06 04:42:18;;;;;;;19.00;11.53;;;;;;;2.25;85.20;99676.13;4951301;28;20201;-83
2023/03/06 04:44:45;;;;;;;17.17;11.67;;;;;;;2.25;85.16;99662.13;4953371;28;20606;-84
2023/03/06 04:47:12;;;;;;;20.27;13.73;;;;;;;2.26;85.65;99661.22;4955608;28;20205;-83
2023/03/06 04:49:38;;;;;;;24.90;13.33;;;;;;;2.25;85.30;99659.50;4955272;28;20228;-83
2023/03/06 04:52:05;;;;;;;19.30;12.67;;;;;;;2.24;86.17;99665.69;4949265;28;20205;-82
2023/03/06 04:54:32;;;;;;;22.80;13.93;;;;;;;2.23;85.53;99654.31;4951368;28;20225;-84
2023/03/06 04:56:58;;;;;;;26.27;14.97;;;;;;;2.25;85.59;99660.38;4953617;28;20216;-82
2023/03/06 04:59:26;;;;;;;24.13;14.47;;;;;;;2.25;85.72;99659.50;4949494;28;20205;-82
2023/03/06 05:01:52;;;;;;;23.03;14.70;;;;;;;2.25;86.62;99656.88;4947746;28;20212;-82
2023/03/06 05:04:19;;;;;;;24.00;14.53;;;;;;;2.23;85.96;99656.94;4951393;28;20754;-84
2023/03/06 05:06:45;;;;;;;22.97;15.33;;;;;;;2.24;86.21;99657.81;4951227;28;20212;-82
2023/03/06 05:09:12;;;;;;;23.37;15.27;;;;;;;2.23;86.90;99656.09;4951394;28;20241;-82
2023/03/06 05:11:38;;;;;;;22.80;14.90;;;;;;;2.22;87.05;99646.50;4953324;29;20205;-82
2023/03/06 05:14:05;;;;;;;25.97;15.87;;;;;;;2.21;86.87;99655.31;4952158;28;20216;-82
2023/03/06 05:16:32;;;;;;;25.57;16.00;;;;;;;2.20;87.10;99649.19;4952179;28;20209;-82
2023/03/06 05:18:59;;;;;;;24.87;15.07;;;;;;;2.20;86.88;99649.19;4951935;28;20208;-83
2023/03/06 05:21:25;;;;;;;26.03;15.80;;;;;;;2.19;87.17;99650.13;4950802;28;20205;-82
2023/03/06 05:23:52;;;;;;;26.20;15.17;;;;;;;2.19;87.17;99642.25;4952455;28;20614;-82
2023/03/06 05:26:18;;;;;;;27.87;16.00;;;;;;;2.19;87.39;99644.00;4954204;28;20211;-81
2023/03/06 05:28:45;;;;;;;25.77;14.97;;;;;;;2.19;87.38;99650.13;4952778;28;20240;-81
2023/03/06 05:31:11;;;;;;;26.80;16.23;;;;;;;2.19;87.34;99649.25;4951577;28;20209;-83
2023/03/06 05:33:39;;;;;;;26.83;15.30;;;;;;;2.18;87.78;99648.41;4952621;28;20209;-83
2023/03/06 05:36:07;;;;;;;26.53;16.00;;;;;;;2.19;87.95;99649.25;4950595;28;20225;-82
2023/03/06 05:38:34;;;;;;;26.90;15.50;;;;;;;2.17;88.47;99649.34;4953390;28;20208;-81
2023/03/06 05:41:00;;;;;;;26.70;15.43;;;;;;;2.17;88.28;99648.47;4949791;28;20219;-81
2023/03/06 05:43:27;;;;;;;27.57;16.53;;;;;;;2.14;88.11;99644.25;4946522;28;20555;-82
2023/03/06 05:46:00;;;;;;;30.40;16.47;;;;;;;2.14;88.20;99646.88;4946110;28;20225;-82
2023/03/06 05:48:26;;;;;;;25.50;15.37;;;;;;;2.15;88.79;99645.09;4950266;29;20217;-84
2023/03/06 05:50:56;;;;;;;24.13;14.83;;;;;;;2.15;88.15;99642.47;4949536;28;20205;-83
2023/03/06 05:53:23;;;;;;;24.90;14.80;;;;;;;2.17;88.41;99640.59;4948804;28;20216;-82
2023/03/06 05:55:55;;;;;;;24.83;15.77;;;;;;;2.16;88.28;99638.91;4952608;28;20229;-82
2023/03/06 05:58:22;;;;;;;23.93;14.33;;;;;;;2.16;88.48;99633.63;4950705;28;20611;-81
2023/03/06 06:00:48;;;;;;;26.00;14.67;;;;;;;2.16;88.92;99636.25;4947482;28;20660;-81
2023/03/06 06:03:15;;;;;;;26.73;15.03;;;;;;;2.17;89.31;99637.97;4949656;28;20213;-81
2023/03/06 06:05:41;;;;;;;23.67;14.30;;;;;;;2.16;88.71;99633.63;4954496;28;20233;-81
2023/03/06 06:08:09;;;;;;;23.07;14.63;;;;;;;2.14;88.83;99635.50;4952228;28;20675;-82
2023/03/06 06:10:35;;;;;;;24.27;14.13;;;;;;;2.15;88.88;99627.53;4952080;28;20209;-83
2023/03/06 06:13:02;;;;;;;28.73;15.13;;;;;;;2.15;89.57;99626.72;4951516;28;20216;-83
2023/03/06 06:15:28;;;;;;;25.53;14.23;;;;;;;2.15;89.38;99630.16;4953429;28;20231;-84
2023/03/06 06:17:55;;;;;;;30.40;14.93;;;;;;;2.15;88.97;99627.53;4949451;28;20217;-82
2023/03/06 06:20:21;;;;;;;24.83;14.53;;;;;;;2.16;89.65;99625.75;4947766;28;20217;-82
2023/03/06 06:22:48;;;;;;;22.80;13.20;;;;;;;2.16;89.48;99628.38;4947816;29;20576;-81
2023/03/06 06:25:16;;;;;;;20.40;12.90;;;;;;;2.17;89.83;99624.84;4949540;28;20247;-82
2023/03/06 06:27:42;;;;;;;22.87;13.20;;;;;;;2.17;89.81;99623.06;4954376;28;20662;-80
2023/03/06 06:30:12;;;;;;;20.97;13.13;;;;;;;2.20;89.27;99620.31;4956629;28;20228;-80
2023/03/06 06:32:39;;;;;;;18.23;12.03;;;;;;;2.20;89.12;99622.09;4948892;28;20205;-80
2023/03/06 06:35:06;;;;;;;22.67;13.70;;;;;;;2.21;89.71;99629.03;4948575;28;20222;-81
2023/03/06 06:37:32;;;;;;;23.20;14.07;;;;;;;2.20;89.39;99615.06;4949979;28;20208;-80
2023/03/06 06:39:59;;;;;;;22.03;14.67;;;;;;;2.22;89.63;99625.50;4952344;28;20207;-80
2023/03/06 06:42:27;;;;;;;21.43;13.70;;;;;;;2.23;89.79;99625.44;4951233;28;20652;-80
2023/03/06 06:44:53;;;;;;;26.70;15.37;;;;;;;2.22;89.54;99623.72;4948294;28;20229;-80
2023/03/06 06:47:19;;;;;;;25.83;15.23;;;;;;;2.22;90.23;99618.47;4945035;28;20206;-80
2023/03/06 06:49:49;;;;;;;26.17;15.47;;;;;;;2.23;89.82;99628.06;4954293;28;20248;-80
2023/03/06 06:52:17;;;;;;;26.07;15.73;;;;;;;2.25;89.48;99627.97;4949474;28;20296;-81
2023/03/06 06:54:44;;;;;;;32.47;15.80;;;;;;;2.24;89.57;99621.03;4950293;28;20254;-80
2023/03/06 06:57:11;;;;;;;25.43;13.87;;;;;;;2.25;89.71;99620.09;4954840;28;20215;-81
2023/03/06 06:59:39;;;;;;;22.93;12.77;;;;;;;2.26;89.53;99619.19;4955628;28;20204;-80
2023/03/06 07:02:06;;;;;;;25.53;14.67;;;;;;;2.28;89.67;99612.94;4955207;28;20209;-81
2023/03/06 07:04:32;;;;;;;21.57;14.03;;;;;;;2.29;90.48;99614.66;4948212;28;20229;-80
2023/03/06 07:06:59;;;;;;;19.90;12.43;;;;;;;2.30;90.17;99616.34;4950204;28;20217;-80
2023/03/06 07:09:26;;;;;;;22.33;13.37;;;;;;;2.32;89.77;99625.03;4947659;28;20228;-80
2023/03/06 07:11:52;;;;;;;23.67;12.50;;;;;;;2.34;90.42;99617.03;4950254;28;20744;-80
2023/03/06 07:14:19;;;;;;;21.70;13.03;;;;;;;2.37;89.96;99623.00;4952617;28;20225;-80
2023/03/06 07:16:47;;;;;;;24.77;13.63;;;;;;;2.38;90.12;99624.72;4950235;28;20220;-80
2023/03/06 07:19:13;;;;;;;17.10;11.33;;;;;;;2.42;90.53;99621.03;4956043;28;20220;-80
2023/03/06 07:21:40;;;;;;;23.80;13.47;;;;;;;2.45;90.54;99622.66;4952195;28;20241;-80
2023/03/06 07:24:07;;;;;;;18.00;10.73;;;;;;;2.48;89.81;99629.56;4948452;28;20206;-81
2023/03/06 07:26:34;;;;;;;20.17;12.27;;;;;;;2.49;90.19;99618.97;4954477;28;20215;-80
2023/03/06 07:29:00;;;;;;;19.03;12.17;;;;;;;2.50;89.96;99627.72;4952130;28;20247;-80
2023/03/06 07:31:27;;;;;;;19.07;11.77;;;;;;;2.51;90.54;99621.53;4955473;28;20209;-80
2023/03/06 07:33:55;;;;;;;20.30;11.57;;;;;;;2.52;90.34;99626.69;4949629;28;20779;-81
2023/03/06 07:36:22;;;;;;;18.67;11.83;;;;;;;2.55;89.73;99621.31;4952019;28;20213;-81
2023/03/06 07:38:49;;;;;;;15.57;10.80;;;;;;;2.57;90.33;99622.09;4955934;28;20208;-80
2023/03/06 07:41:17;;;;;;;16.70;10.63;;;;;;;2.59;90.37;99628.13;4950722;28;20214;-81
2023/03/06 07:43:45;;;;;;;18.87;11.57;;;;;;;2.59;89.49;99617.63;4951446;28;20295;-80
2023/03/06 07:46:13;;;;;;;17.13;11.07;;;;;;;2.63;90.00;99619.19;4955439;28;20224;-81
2023/03/06 07:48:40;;;;;;;18.70;11.73;;;;;;;2.66;89.28;99619.03;4951520;28;20205;-79
2023/03/06 07:51:13;;;;;;;15.03;9.63;;;;;;;2.73;89.54;99622.22;4955235;28;20221;-79
2023/03/06 07:53:40;;;;;;;13.17;9.33;;;;;;;2.74;89.88;99616.03;4954768;28;20230;-80
2023/03/06 07:56:08;;;;;;;14.77;10.40;;;;;;;2.78;89.81;99620.22;4960445;28;20239;-79
2023/03/06 07:58:34;;;;;;;14.23;8.43;;;;;;;2.82;89.45;99618.31;4952046;28;20233;-80
2023/03/06 08:01:03;;;;;;;14.63;10.20;;;;;;;2.86;88.72;99614.59;4956249;28;20216;-81
2023/03/06 08:03:30;;;;;;;12.73;8.90;;;;;;;2.87;89.12;99627.66;4952130;28;20219;-80
2023/03/06 08:06:08;;;;;;;12.13;9.37;;;;;;;2.87;89.11;99625.03;4953308;28;20251;-79
2023/03/06 08:08:35;;;;;;;11.40;8.63;;;;;;;2.89;89.08;99623.16;4955411;28;20221;-80
2023/03/06 08:11:02;;;;;;;14.33;9.50;;;;;;;2.92;88.88;99620.41;4951928;28;20240;-80
2023/03/06 08:13:28;;;;;;;14.60;9.50;;;;;;;2.95;88.45;99625.53;4958843;28;20548;-80
2023/03/06 08:15:55;;;;;;;13.33;8.93;;;;;;;2.99;88.01;99620.97;4956844;28;20659;-80
2023/03/06 08:18:22;;;;;;;15.00;9.30;;;;;;;3.02;88.46;99626.09;4950866;28;20212;-80
2023/03/06 08:20:48;;;;;;;13.63;8.43;;;;;;;3.03;88.20;99620.75;4947826;28;20216;-79
2023/03/06 08:23:16;;;;;;;13.77;8.33;;;;;;;3.08;87.97;99625.75;4952813;28;20721;-80
2023/03/06 08:25:43;;;;;;;12.97;8.27;;;;;;;3.12;87.82;99632.59;4954024;28;20228;-79
2023/03/06 08:28:09;;;;;;;11.80;8.43;;;;;;;3.16;88.32;99628.03;4949430;28;20595;-79
2023/03/06 08:30:36;;;;;;;14.63;8.70;;;;;;;3.18;88.10;99632.28;4953272;28;20237;-80
2023/03/06 08:33:02;;;;;;;13.80;8.70;;;;;;;3.20;88.14;99632.22;4948299;28;20234;-80
2023/03/06 08:35:28;;;;;;;12.10;8.30;;;;;;;3.23;88.03;99630.25;4957836;28;20231;-81
2023/03/06 08:37:55;;;;;;;14.00;8.00;;;;;;;3.23;87.30;99627.63;4953550;28;20216;-80
2023/03/06 08:40:25;;;;;;;13.27;8.23;;;;;;;3.23;86.62;99625.00;4958231;28;20211;-81
2023/03/06 08:42:52;;;;;;;11.70;8.30;;;;;;;3.23;86.57;99629.41;4951432;28;20668;-80
2023/03/06 08:45:18;;;;;;;11.77;8.17;;;;;;;3.25;86.19;99632.81;4952495;28;20731;-81
2023/03/06 08:47:45;;;;;;;13.00;8.60;;;;;;;3.26;86.37;99624.00;4954196;28;20728;-80
2023/03/06 08:50:11;;;;;;;11.13;7.73;;;;;;;3.30;86.25;99626.41;4951845;28;20224;-80
2023/03/06 08:52:38;;;;;;;11.17;7.83;;;;;;;3.32;86.11;99632.47;4953281;28;20212;-80
2023/03/06 08:55:05;;;;;;;10.43;7.80;;;;;;;3.37;86.85;99630.44;4955880;28;20225;-80
2023/03/06 08:57:33;;;;;;;11.00;7.43;;;;;;;3.39;85.99;99625.97;4956177;28;20208;-80
2023/03/06 08:59:59;;;;;;;12.73;8.00;;;;;;;3.38;85.98;99629.53;4954436;28;20205;-80
2023/03/06 09:02:26;;;;;;;9.07;7.17;;;;;;;3.36;85.82;99628.75;4949442;28;20296;-80
2023/03/06 09:04:52;;;;;;;10.60;7.50;;;;;;;3.37;85.26;99635.72;4951875;28;20229;-80
2023/03/06 09:07:19;;;;;;;9.80;7.17;;;;;;;3.40;85.53;99634.72;4946759;28;20209;-80
2023/03/06 09:09:45;;;;;;;11.97;7.80;;;;;;;3.42;84.88;99640.72;4948662;28;20236;-80
2023/03/06 09:12:12;;;;;;;9.37;6.50;;;;;;;3.39;84.96;99633.88;4947481;28;20213;-80
2023/03/06 09:14:40;;;;;;;11.27;7.47;;;;;;;3.36;84.72;99631.38;4949536;28;20233;-80
2023/03/06 09:17:06;;;;;;;10.80;8.20;;;;;;;3.37;84.59;99638.34;4950933;28;20213;-80
2023/03/06 09:19:33;;;;;;;9.27;7.87;;;;;;;3.40;84.40;99645.25;4951133;28;20220;-80
2023/03/06 09:21:59;;;;;;;10.87;7.73;;;;;;;3.40;84.12;99639.97;4949277;28;20718;-80
2023/03/06 09:24:26;;;;;;;12.50;7.93;;;;;;;3.39;84.02;99641.75;4953470;28;20315;-81
2023/03/06 09:26:53;;;;;;;11.80;8.20;;;;;;;3.41;84.72;99639.88;4949551;28;20213;-80
2023/03/06 09:29:20;;;;;;;9.70;8.20;;;;;;;3.44;84.88;99631.84;4950225;28;20248;-80
2023/03/06 09:31:48;;;;;;;9.00;7.60;;;;;;;3.48;84.51;99633.38;4950818;28;20217;-80
2023/03/06 09:34:14;;;;;;;9.87;7.03;;;;;;;3.53;84.92;99640.22;4951229;28;20228;-80
2023/03/06 09:36:41;;;;;;;9.67;7.27;;;;;;;3.51;84.08;99644.69;4954009;28;20208;-80
2023/03/06 09:39:08;;;;;;;8.93;6.93;;;;;;;3.48;83.90;99641.28;4950772;28;20209;-80
2023/03/06 09:41:37;;;;;;;8.13;6.80;;;;;;;3.48;84.74;99638.66;4952120;28;20248;-80
2023/03/06 09:44:07;;;;;;;7.13;6.33;;;;;;;3.49;84.54;99640.34;4949015;28;20204;-80
2023/03/06 09:47:07;;;;;;;11.13;7.20;;;;;;;3.49;84.78;99640.34;4952699;28;20209;-81
2023/03/06 09:49:41;;;;;;;8.80;6.83;;;;;;;3.48;83.96;99636.03;4950376;28;20224;-80
2023/03/06 09:52:23;;;;;;;9.90;7.03;;;;;;;3.46;84.10;99648.41;4950480;28;20209;-81
2023/03/06 09:54:54;;;;;;;10.57;7.43;;;;;;;3.42;84.37;99644.22;4950923;28;20287;-81
2023/03/06 09:57:24;;;;;;;10.80;7.57;;;;;;;3.42;84.49;99640.72;4949244;28;20223;-81
2023/03/06 09:59:54;;;;;;;10.60;8.10;;;;;;;3.39;85.39;99641.75;4951322;28;20212;-81
2023/03/06 10:02:28;;;;;;;10.90;7.37;;;;;;;3.40;84.87;99632.09;4948378;28;20216;-81
2023/03/06 10:05:00;;;;;;;8.70;6.20;;;;;;;3.38;84.98;99642.69;4946399;29;20239;-82
2023/03/06 10:07:36;;;;;;;9.07;6.67;;;;;;;3.35;85.24;99647.25;4951034;28;20617;-81
2023/03/06 10:10:06;;;;;;;12.67;7.70;;;;;;;3.32;85.37;99642.97;4948142;28;20217;-81
2023/03/06 10:12:37;;;;;;;10.30;8.23;;;;;;;3.26;85.63;99653.81;4953489;28;20204;-81
2023/03/06 10:15:14;;;;;;;9.60;7.53;;;;;;;3.22;86.85;99654.91;4949694;28;20242;-81
2023/03/06 10:17:43;;;;;;;10.30;7.83;;;;;;;3.16;87.05;99649.94;4946944;28;20209;-81
2023/03/06 10:20:18;;;;;;;9.77;7.70;;;;;;;3.11;86.73;99651.94;4937917;28;20220;-81
2023/03/06 10:22:53;;;;;;;8.40;5.00;;;;;;;3.06;86.98;99661.81;4947331;28;20303;-83
2023/03/06 10:25:24;;;;;;;3.93;2.90;;;;;;;2.99;86.50;99657.78;4951585;28;20593;-82
2023/03/06 10:27:57;;;;;;;3.73;2.47;;;;;;;2.88;86.78;99666.19;4956159;28;20201;-82
2023/03/06 10:30:33;;;;;;;2.13;1.90;;;;;;;2.79;86.84;99669.25;4942682;29;20629;-82
2023/03/06 10:33:09;;;;;;;3.17;2.03;;;;;;;2.70;87.34;99670.53;4944896;28;20211;-82
2023/03/06 10:35:46;;;;;;;3.03;1.77;;;;;;;2.63;87.19;99671.75;4953871;28;20235;-82
2023/03/06 10:38:19;;;;;;;1.67;1.57;;;;;;;2.55;87.30;99668.63;4939809;28;20260;-83
2023/03/06 10:41:05;;;;;;;1.73;1.30;;;;;;;2.46;87.42;99676.06;4952737;28;20711;-82
2023/03/06 10:43:31;;;;;;;1.50;1.17;;;;;;;2.39;87.97;99673.72;4944164;28;20679;-82
2023/03/06 10:45:58;;;;;;;2.57;1.10;;;;;;;2.33;87.78;99667.91;4951303;28;20236;-83
2023/03/06 10:48:28;;;;;;;1.33;0.80;;;;;;;2.29;88.68;99671.59;4949166;28;20217;-81
2023/03/06 10:51:10;;;;;;;1.10;0.90;;;;;;;2.27;88.55;99676.06;4947911;28;20232;-81
2023/03/06 10:53:51;;;;;;;0.40;0.40;;;;;;;2.22;88.17;99673.63;4949344;28;20248;-81
2023/03/06 10:56:26;;;;;;;1.13;0.60;;;;;;;2.18;88.98;99679.09;4941528;28;20229;-81
2023/03/06 10:59:06;;;;;;;2.13;0.70;;;;;;;2.16;88.58;99679.16;4953518;28;20200;-81
2023/03/06 11:01:32;;;;;;;1.00;0.80;;;;;;;2.14;88.97;99669.66;4949093;28;20200;-81
2023/03/06 11:04:15;;;;;;;1.10;0.70;;;;;;;2.14;89.22;99674.91;4942695;28;20237;-81
2023/03/06 11:06:42;;;;;;;2.73;1.17;;;;;;;2.12;89.77;99671.50;4945203;28;20216;-81
2023/03/06 11:09:16;;;;;;;1.47;1.10;;;;;;;2.08;89.94;99679.50;4945385;28;20270;-81
2023/03/06 11:11:42;;;;;;;1.60;1.00;;;;;;;2.09;90.18;99680.34;4949815;28;20842;-82
2023/03/06 11:14:15;;;;;;;2.43;1.10;;;;;;;2.05;89.75;99684.88;4949013;28;20208;-81
2023/03/06 11:16:51;;;;;;;3.03;1.37;;;;;;;2.01;90.38;99683.31;4952405;28;20208;-81
2023/03/06 11:19:22;;;;;;;1.20;0.90;;;;;;;2.01;90.23;99688.56;4947247;28;20247;-81
2023/03/06 11:22:00;;;;;;;2.10;1.57;;;;;;;2.03;90.11;99691.13;4954521;28;20212;-81
2023/03/06 11:24:35;;;;;;;2.03;1.37;;;;;;;2.02;90.37;99681.53;4943912;28;20259;-80
2023/03/06 11:27:08;;;;;;;1.70;1.40;;;;;;;2.02;90.51;99690.25;4949945;28;20213;-81
2023/03/06 11:29:41;;;;;;;1.60;1.23;;;;;;;2.06;90.62;99691.00;4951689;28;20201;-81
2023/03/06 11:32:14;;;;;;;1.60;1.30;;;;;;;2.08;90.73;99694.41;4953847;28;20232;-81
2023/03/06 11:34:47;;;;;;;1.47;1.30;;;;;;;2.07;90.91;99683.06;4947396;28;20232;-81
2023/03/06 11:37:20;;;;;;;1.77;1.33;;;;;;;2.07;91.56;99683.06;4947697;28;20609;-82
2023/03/06 11:39:52;;;;;;;1.83;1.20;;;;;;;2.08;90.85;99684.75;4948109;28;20205;-82